Time;durP1;ratioP1;P1;durP2;ratioP2;P2;SDS_P1;SDS_P2;PMS_P1;PMS_P2;Temp;Humidity;BMP_temperature;BMP_pressure;BME280_temperature;BME280_humidity;BME280_pressure;Samples;Min_cycle;Max_cycle;Signal;HPM_P1;HPM_P2
2021/12/29 00:01:49;;;;;;;0.00;0.00;;;9.10;99.90;;;;;;9174824;19;20018;-72
2021/12/29 00:04:55;;;;;;;0.30;0.15;;;9.10;99.90;;;;;;9175004;19;20020;-72
2021/12/29 00:08:01;;;;;;;0.10;0.10;;;9.10;99.90;;;;;;9170310;19;20049;-72
2021/12/29 00:11:06;;;;;;;0.20;0.20;;;9.10;99.90;;;;;;9167226;19;20018;-72
2021/12/29 00:14:12;;;;;;;0.20;0.20;;;9.10;99.90;;;;;;9172107;19;20119;-72
2021/12/29 00:17:20;;;;;;;0.20;0.20;;;9.10;99.90;;;;;;9172750;19;20456;-72
2021/12/29 00:20:29;;;;;;;1.25;0.10;;;9.10;99.90;;;;;;9174524;19;20022;-73
2021/12/29 00:23:35;;;;;;;0.20;0.15;;;9.10;99.90;;;;;;9175767;19;20018;-72
2021/12/29 00:27:00;;;;;;;0.13;0.13;;;9.10;99.90;;;;;;9174341;19;20086;-72
2021/12/29 00:30:06;;;;;;;0.17;0.17;;;9.10;99.90;;;;;;9174113;19;20022;-72
2021/12/29 00:33:33;;;;;;;0.15;0.15;;;9.10;99.90;;;;;;9173672;19;20503;-72
2021/12/29 00:37:01;;;;;;;0.30;0.30;;;9.10;99.90;;;;;;9170114;19;20015;-72
2021/12/29 00:40:24;;;;;;;0.28;0.28;;;9.10;99.90;;;;;;9171541;19;20086;-72
2021/12/29 00:44:01;;;;;;;0.20;0.20;;;9.10;99.90;;;;;;9172558;19;20463;-73
2021/12/29 00:47:38;;;;;;;0.25;0.20;;;9.10;99.90;;;;;;9171081;19;20018;-72
2021/12/29 00:50:45;;;;;;;0.50;0.20;;;9.10;99.90;;;;;;9173087;19;20014;-72
2021/12/29 00:53:50;;;;;;;0.40;0.30;;;9.10;99.90;;;;;;9167646;19;20019;-72
2021/12/29 00:56:56;;;;;;;0.25;0.20;;;9.10;99.90;;;;;;9174492;19;20015;-72
2021/12/29 01:00:01;;;;;;;0.20;0.20;;;9.10;99.90;;;;;;9173624;19;20022;-72
2021/12/29 01:03:06;;;;;;;0.20;0.20;;;9.10;99.90;;;;;;9175349;19;20052;-72
2021/12/29 01:06:14;;;;;;;0.30;0.30;;;9.10;99.90;;;;;;9171016;19;20025;-71
2021/12/29 01:09:19;;;;;;;0.20;0.20;;;9.10;99.90;;;;;;9169912;19;20015;-72
2021/12/29 01:12:25;;;;;;;0.47;0.35;;;9.10;99.90;;;;;;9172872;19;20019;-72
2021/12/29 01:15:36;;;;;;;0.30;0.30;;;9.10;99.90;;;;;;9171353;19;20468;-72
2021/12/29 01:18:43;;;;;;;0.20;0.20;;;9.10;99.90;;;;;;9171987;19;20480;-72
2021/12/29 01:21:53;;;;;;;0.20;0.20;;;9.10;99.90;;;;;;9174561;19;20021;-72
2021/12/29 01:24:58;;;;;;;0.10;0.10;;;9.10;99.90;;;;;;9183732;19;20021;-72
2021/12/29 01:28:03;;;;;;;0.10;0.10;;;9.10;99.90;;;;;;9178454;19;20015;-72
2021/12/29 01:31:08;;;;;;;0.00;0.00;;;9.10;99.90;;;;;;9177387;19;20015;-72
2021/12/29 01:34:14;;;;;;;0.10;0.10;;;9.10;99.90;;;;;;9178975;19;20022;-72
2021/12/29 01:37:21;;;;;;;0.00;0.00;;;9.10;99.90;;;;;;9179483;19;20015;-72
2021/12/29 01:40:26;;;;;;;0.10;0.10;;;9.10;99.90;;;;;;9179999;19;20025;-72
2021/12/29 01:43:32;;;;;;;0.10;0.10;;;9.10;99.90;;;;;;9180150;19;20022;-72
2021/12/29 01:46:37;;;;;;;0.13;0.13;;;9.10;99.90;;;;;;9183187;19;20140;-72
2021/12/29 01:49:44;;;;;;;0.30;0.20;;;9.20;99.90;;;;;;9178737;19;20018;-72
2021/12/29 01:52:55;;;;;;;0.10;0.10;;;9.10;99.90;;;;;;9175634;19;20029;-73
2021/12/29 01:56:00;;;;;;;0.10;0.10;;;9.20;99.90;;;;;;9178121;19;20014;-71
2021/12/29 01:59:05;;;;;;;0.13;0.10;;;9.20;99.90;;;;;;9178555;19;20030;-72
2021/12/29 02:02:14;;;;;;;0.17;0.17;;;9.20;99.90;;;;;;9176335;19;20391;-72
2021/12/29 02:05:19;;;;;;;0.22;0.20;;;9.20;99.90;;;;;;9179408;19;20043;-73
2021/12/29 02:08:27;;;;;;;0.35;0.20;;;9.20;99.90;;;;;;9177241;19;20043;-72
2021/12/29 02:11:32;;;;;;;0.00;0.00;;;9.20;99.90;;;;;;9177584;19;20018;-72
2021/12/29 02:14:37;;;;;;;0.22;0.10;;;9.20;99.90;;;;;;9176964;19;20026;-72
2021/12/29 02:17:42;;;;;;;0.05;0.05;;;9.20;99.90;;;;;;9177536;19;20018;-72
2021/12/29 02:20:53;;;;;;;0.10;0.10;;;9.20;99.90;;;;;;9178138;19;20022;-73
2021/12/29 02:24:17;;;;;;;0.05;0.00;;;9.20;99.90;;;;;;9178941;19;20014;-73
2021/12/29 02:27:23;;;;;;;;;;;9.30;99.90;;;;;;9182242;19;20018;-72
2021/12/29 02:30:29;;;;;;;0.30;0.17;;;9.30;99.90;;;;;;9177117;19;20258;-72
2021/12/29 02:33:35;;;;;;;0.10;0.10;;;9.30;99.90;;;;;;9173361;19;20021;-72
2021/12/29 02:36:46;;;;;;;0.10;0.10;;;9.30;99.90;;;;;;9178358;19;20022;-73
2021/12/29 02:39:52;;;;;;;0.00;0.00;;;9.30;99.90;;;;;;9177236;19;20018;-73
2021/12/29 02:42:57;;;;;;;0.35;0.10;;;9.40;99.90;;;;;;9178694;19;20026;-72
2021/12/29 02:46:02;;;;;;;0.20;0.10;;;9.30;99.90;;;;;;9180629;19;20034;-72
2021/12/29 02:49:07;;;;;;;0.20;0.10;;;9.40;99.90;;;;;;9175934;19;20038;-73
2021/12/29 02:52:15;;;;;;;0.28;0.15;;;9.40;99.90;;;;;;9175977;19;20022;-72
2021/12/29 02:55:20;;;;;;;0.10;0.10;;;9.40;99.90;;;;;;9173742;19;20026;-73
2021/12/29 02:58:26;;;;;;;0.40;0.20;;;9.40;99.90;;;;;;9180339;19;20098;-72
2021/12/29 03:01:32;;;;;;;0.10;0.10;;;9.40;99.90;;;;;;9175436;19;20022;-73
2021/12/29 03:04:38;;;;;;;0.40;0.20;;;9.40;99.90;;;;;;9179679;19;20014;-73
2021/12/29 03:07:46;;;;;;;0.20;0.20;;;9.40;99.90;;;;;;9176732;19;20371;-73
2021/12/29 03:10:53;;;;;;;0.15;0.10;;;9.40;99.90;;;;;;9175889;19;20054;-73
2021/12/29 03:13:59;;;;;;;0.50;0.25;;;9.40;99.90;;;;;;9176897;19;20018;-73
2021/12/29 03:17:04;;;;;;;0.10;0.10;;;9.40;99.90;;;;;;9176125;19;20055;-71
2021/12/29 03:20:11;;;;;;;0.20;0.20;;;9.40;99.90;;;;;;9179309;19;20025;-73
2021/12/29 03:23:20;;;;;;;0.20;0.20;;;9.40;99.90;;;;;;9177418;19;20019;-72
2021/12/29 03:26:25;;;;;;;0.43;0.30;;;9.40;99.90;;;;;;9178966;19;20015;-72
2021/12/29 03:29:30;;;;;;;0.32;0.20;;;9.40;99.90;;;;;;9173584;19;20035;-73
2021/12/29 03:32:41;;;;;;;0.40;0.40;;;9.40;99.90;;;;;;9174847;19;20022;-73
2021/12/29 03:35:49;;;;;;;0.43;0.28;;;9.50;99.90;;;;;;9176010;19;20345;-73
2021/12/29 03:38:56;;;;;;;0.50;0.20;;;9.40;99.90;;;;;;9176141;19;20022;-73
2021/12/29 03:42:01;;;;;;;0.70;0.40;;;9.40;99.90;;;;;;9174670;19;20007;-73
2021/12/29 03:45:07;;;;;;;0.30;0.20;;;9.50;99.90;;;;;;9176192;19;20018;-72
2021/12/29 03:48:13;;;;;;;0.30;0.30;;;9.40;99.90;;;;;;9175899;19;20014;-73
2021/12/29 03:51:18;;;;;;;0.60;0.30;;;9.40;99.90;;;;;;9174882;19;20348;-73
2021/12/29 03:54:26;;;;;;;0.25;0.17;;;9.40;99.90;;;;;;9168927;19;20033;-73
2021/12/29 03:57:31;;;;;;;0.30;0.30;;;9.40;99.90;;;;;;9173409;19;20824;-73
2021/12/29 04:00:36;;;;;;;0.30;0.20;;;9.40;99.90;;;;;;9173465;19;20056;-73
2021/12/29 04:03:45;;;;;;;1.00;0.22;;;9.40;99.90;;;;;;9174476;19;20018;-73
2021/12/29 04:06:50;;;;;;;0.30;0.25;;;9.40;99.90;;;;;;9173804;19;20024;-73
2021/12/29 04:09:58;;;;;;;0.20;0.20;;;9.40;99.90;;;;;;9175806;19;20019;-73
2021/12/29 04:13:03;;;;;;;0.10;0.10;;;9.40;99.90;;;;;;9172532;19;20033;-73
2021/12/29 04:16:15;;;;;;;0.30;0.10;;;9.40;99.90;;;;;;9174411;19;20019;-73
2021/12/29 04:19:29;;;;;;;0.32;0.30;;;9.40;99.90;;;;;;9172826;19;20035;-73
2021/12/29 04:22:34;;;;;;;0.10;0.10;;;9.40;99.90;;;;;;9171044;19;20022;-72
2021/12/29 04:25:45;;;;;;;0.20;0.20;;;9.40;99.90;;;;;;9173794;19;20018;-72
2021/12/29 04:28:50;;;;;;;0.10;0.10;;;9.40;99.90;;;;;;9176269;19;20022;-73
2021/12/29 04:31:55;;;;;;;0.10;0.10;;;9.40;99.90;;;;;;9177311;19;20026;-73
2021/12/29 04:35:00;;;;;;;0.68;0.38;;;9.40;99.90;;;;;;9171409;19;20022;-73
2021/12/29 04:38:05;;;;;;;0.30;0.08;;;9.40;99.90;;;;;;9171578;19;20486;-73
2021/12/29 04:41:13;;;;;;;0.17;0.10;;;9.40;99.90;;;;;;9172480;19;20344;-73
2021/12/29 04:44:18;;;;;;;0.10;0.10;;;9.40;99.90;;;;;;9171895;19;20570;-73
2021/12/29 04:47:28;;;;;;;0.10;0.10;;;9.30;99.90;;;;;;9174440;19;20479;-73
2021/12/29 04:50:37;;;;;;;0.38;0.20;;;9.40;99.90;;;;;;9174184;19;20030;-73
2021/12/29 04:53:42;;;;;;;0.10;0.10;;;9.30;99.90;;;;;;9170420;19;20537;-73
2021/12/29 04:56:49;;;;;;;0.00;0.00;;;9.30;99.90;;;;;;9171025;19;20064;-72
2021/12/29 04:59:55;;;;;;;0.32;0.28;;;9.30;99.90;;;;;;9171495;19;20020;-73
2021/12/29 05:03:01;;;;;;;0.08;0.08;;;9.30;99.90;;;;;;9172524;19;20052;-73
2021/12/29 05:09:23;;;;;;;0.20;0.20;;;9.30;99.90;;;;;;9173044;19;20014;-73
2021/12/29 05:12:31;;;;;;;0.10;0.10;;;9.30;99.90;;;;;;9170612;19;20721;-73
2021/12/29 05:15:36;;;;;;;0.03;0.03;;;9.30;99.90;;;;;;9174874;19;20014;-73
2021/12/29 05:18:44;;;;;;;0.68;0.40;;;9.30;99.90;;;;;;9170162;19;21050;-73
2021/12/29 05:21:49;;;;;;;0.10;0.10;;;9.30;99.90;;;;;;9172147;19;20574;-73
2021/12/29 05:24:54;;;;;;;0.32;0.22;;;9.30;99.90;;;;;;9170523;19;20013;-73
2021/12/29 05:28:02;;;;;;;0.50;0.20;;;9.30;99.90;;;;;;9170305;19;20014;-73
2021/12/29 05:31:08;;;;;;;0.50;0.32;;;9.30;99.90;;;;;;9170956;19;20014;-73
2021/12/29 05:34:13;;;;;;;0.90;0.28;;;9.40;99.90;;;;;;9173171;19;20015;-73
2021/12/29 05:37:18;;;;;;;0.98;0.43;;;9.30;99.90;;;;;;9171692;19;20045;-73
2021/12/29 05:40:23;;;;;;;0.85;0.40;;;9.30;99.90;;;;;;9169038;19;20019;-73
2021/12/29 05:43:31;;;;;;;1.17;0.40;;;9.30;99.90;;;;;;9169981;19;20475;-72
2021/12/29 05:46:36;;;;;;;0.73;0.43;;;9.30;99.90;;;;;;9170837;19;20053;-73
2021/12/29 05:49:41;;;;;;;0.30;0.30;;;9.30;99.90;;;;;;9171447;19;20018;-74
2021/12/29 05:52:47;;;;;;;0.22;0.22;;;9.30;99.90;;;;;;9172019;19;20010;-72
2021/12/29 05:55:52;;;;;;;0.90;0.40;;;9.30;99.90;;;;;;9168494;19;20026;-73
2021/12/29 05:59:01;;;;;;;0.30;0.30;;;9.30;99.90;;;;;;9171625;19;20344;-73
2021/12/29 06:02:07;;;;;;;0.73;0.30;;;9.30;99.90;;;;;;9167362;19;20014;-73
2021/12/29 06:05:12;;;;;;;0.47;0.30;;;9.30;99.90;;;;;;9167000;19;20015;-73
2021/12/29 06:08:17;;;;;;;0.40;0.30;;;9.30;99.90;;;;;;9168774;19;20019;-72
2021/12/29 06:11:22;;;;;;;0.60;0.35;;;9.30;99.90;;;;;;9179941;19;20710;-73
2021/12/29 06:14:30;;;;;;;0.52;0.40;;;9.30;99.90;;;;;;9180278;19;20014;-73
2021/12/29 06:17:36;;;;;;;0.28;0.13;;;9.30;99.90;;;;;;9179748;19;20023;-73
2021/12/29 06:20:41;;;;;;;0.77;0.40;;;9.30;99.90;;;;;;9180202;19;20010;-73
2021/12/29 06:23:46;;;;;;;0.70;0.30;;;9.30;99.90;;;;;;9177822;19;20011;-73
2021/12/29 06:26:51;;;;;;;0.25;0.20;;;9.30;99.90;;;;;;9176649;19;20021;-71
2021/12/29 06:29:59;;;;;;;0.40;0.25;;;9.30;99.90;;;;;;9176930;19;20021;-73
2021/12/29 06:33:05;;;;;;;0.47;0.30;;;9.30;99.90;;;;;;9178363;19;20018;-73
2021/12/29 06:36:10;;;;;;;0.52;0.40;;;9.30;99.90;;;;;;9181101;19;20018;-73
2021/12/29 06:39:16;;;;;;;0.10;0.10;;;9.30;99.90;;;;;;9179031;19;20037;-73
2021/12/29 06:42:23;;;;;;;0.60;0.30;;;9.30;99.90;;;;;;9178171;19;20996;-73
2021/12/29 06:45:30;;;;;;;0.77;0.30;;;9.30;99.90;;;;;;9175821;19;20011;-72
2021/12/29 06:48:35;;;;;;;0.70;0.35;;;9.30;99.90;;;;;;9177673;19;20015;-73
2021/12/29 06:51:40;;;;;;;0.75;0.45;;;9.30;99.90;;;;;;9177325;19;20022;-73
2021/12/29 06:54:46;;;;;;;0.40;0.20;;;9.30;99.90;;;;;;9172362;19;20023;-73
2021/12/29 06:57:51;;;;;;;1.55;0.52;;;9.30;99.90;;;;;;9178979;19;20613;-73
2021/12/29 07:00:59;;;;;;;0.50;0.40;;;9.40;99.90;;;;;;9178822;19;20021;-73
2021/12/29 07:04:04;;;;;;;0.50;0.43;;;9.40;99.90;;;;;;9177672;19;20478;-72
2021/12/29 07:07:09;;;;;;;0.47;0.40;;;9.40;99.90;;;;;;9176012;19;20029;-73
2021/12/29 07:10:14;;;;;;;1.10;0.60;;;9.30;99.90;;;;;;9176532;19;20014;-73
2021/12/29 07:13:19;;;;;;;0.40;0.30;;;9.30;99.90;;;;;;9176269;19;20026;-73
2021/12/29 07:16:27;;;;;;;0.75;0.40;;;9.40;99.90;;;;;;9176712;19;20010;-73
2021/12/29 07:19:32;;;;;;;0.57;0.50;;;9.30;99.90;;;;;;9177844;19;20025;-72
2021/12/29 07:22:37;;;;;;;0.45;0.45;;;9.40;99.90;;;;;;9175512;19;20026;-73
2021/12/29 07:25:42;;;;;;;0.63;0.40;;;9.40;99.90;;;;;;9176571;19;20014;-73
2021/12/29 07:28:56;;;;;;;0.52;0.45;;;9.40;99.90;;;;;;9173776;19;20026;-71
2021/12/29 07:32:10;;;;;;;0.65;0.43;;;9.40;99.90;;;;;;9174792;19;20032;-73
2021/12/29 07:35:15;;;;;;;1.15;0.60;;;9.40;99.90;;;;;;9176347;19;20018;-73
2021/12/29 07:38:20;;;;;;;1.20;0.50;;;9.40;99.90;;;;;;9175418;19;20368;-73
2021/12/29 07:41:25;;;;;;;0.77;0.60;;;9.40;99.90;;;;;;9175572;19;20018;-73
2021/12/29 07:44:30;;;;;;;0.90;0.55;;;9.40;99.90;;;;;;9172765;19;20018;-73
2021/12/29 07:47:39;;;;;;;1.30;0.50;;;9.40;99.90;;;;;;9177624;19;20036;-73
2021/12/29 07:50:44;;;;;;;1.48;0.30;;;9.40;99.90;;;;;;9174566;19;20671;-72
2021/12/29 07:53:49;;;;;;;1.17;0.43;;;9.40;99.90;;;;;;9170615;19;20068;-74
2021/12/29 07:56:54;;;;;;;0.90;0.45;;;9.40;99.90;;;;;;9173903;19;20029;-73
2021/12/29 07:59:59;;;;;;;1.00;0.57;;;9.40;99.90;;;;;;9174586;19;20559;-73
2021/12/29 08:03:07;;;;;;;0.52;0.38;;;9.40;99.90;;;;;;9176006;19;20683;-72
2021/12/29 08:06:18;;;;;;;0.57;0.35;;;9.50;99.90;;;;;;9176052;19;20010;-73
2021/12/29 08:09:23;;;;;;;0.40;0.20;;;9.40;99.90;;;;;;9178037;19;20372;-73
2021/12/29 08:12:28;;;;;;;0.52;0.38;;;9.40;99.90;;;;;;9174671;19;20058;-73
2021/12/29 08:15:34;;;;;;;0.93;0.40;;;9.40;99.90;;;;;;9175026;19;20015;-73
2021/12/29 08:18:41;;;;;;;0.98;0.40;;;9.50;99.90;;;;;;9175597;19;20020;-73
2021/12/29 08:21:46;;;;;;;1.30;0.50;;;9.50;99.90;;;;;;9177153;19;20042;-72
2021/12/29 08:24:57;;;;;;;0.82;0.40;;;9.50;99.90;;;;;;9175550;19;20337;-73
2021/12/29 08:28:02;;;;;;;0.47;0.30;;;9.50;99.90;;;;;;9174648;19;20033;-72
2021/12/29 08:31:07;;;;;;;0.65;0.32;;;9.50;99.90;;;;;;9175634;19;20022;-73
2021/12/29 08:34:15;;;;;;;0.30;0.28;;;9.50;99.90;;;;;;9172249;19;20025;-73
2021/12/29 08:37:20;;;;;;;0.63;0.30;;;9.50;99.90;;;;;;9174929;19;20015;-73
2021/12/29 08:40:25;;;;;;;0.35;0.20;;;9.50;99.90;;;;;;9174167;19;20049;-73
2021/12/29 08:43:31;;;;;;;0.65;0.30;;;9.50;99.90;;;;;;9176941;19;20014;-73
2021/12/29 08:46:36;;;;;;;0.20;0.20;;;9.50;99.90;;;;;;9177729;19;20056;-73
2021/12/29 08:49:44;;;;;;;0.50;0.30;;;9.50;99.90;;;;;;9172006;19;20025;-73
2021/12/29 08:52:49;;;;;;;0.20;0.20;;;9.60;99.90;;;;;;9171958;19;20022;-73
2021/12/29 08:55:57;;;;;;;0.30;0.30;;;9.60;99.90;;;;;;9173861;19;20495;-73
2021/12/29 08:59:02;;;;;;;0.28;0.22;;;9.60;99.90;;;;;;9173936;19;20018;-73
2021/12/29 09:02:07;;;;;;;0.40;0.30;;;9.60;99.90;;;;;;9172195;19;20642;-73
2021/12/29 09:05:16;;;;;;;0.20;0.20;;;9.60;99.90;;;;;;9173257;19;20627;-73
2021/12/29 09:08:21;;;;;;;0.40;0.30;;;9.60;99.90;;;;;;9172238;19;20498;-73
2021/12/29 09:11:29;;;;;;;0.50;0.40;;;9.60;99.90;;;;;;9168445;19;20016;-73
2021/12/29 09:14:35;;;;;;;0.60;0.30;;;9.60;99.90;;;;;;9167781;19;20019;-72
2021/12/29 09:17:40;;;;;;;0.60;0.47;;;9.60;99.90;;;;;;9165167;19;20003;-73
2021/12/29 09:20:47;;;;;;;0.40;0.30;;;9.60;99.90;;;;;;9167799;19;20014;-73
2021/12/29 09:23:52;;;;;;;0.28;0.22;;;9.60;99.90;;;;;;9164959;19;20030;-73
2021/12/29 09:26:58;;;;;;;0.38;0.30;;;9.70;99.90;;;;;;9167641;19;20054;-72
2021/12/29 09:30:03;;;;;;;0.50;0.30;;;9.70;99.90;;;;;;9166757;19;20052;-73
2021/12/29 09:33:09;;;;;;;0.30;0.30;;;9.70;99.90;;;;;;9168642;19;20486;-73
2021/12/29 09:36:17;;;;;;;0.65;0.30;;;9.70;99.90;;;;;;9167103;19;20022;-73
2021/12/29 09:39:24;;;;;;;0.60;0.43;;;9.70;99.90;;;;;;9166242;19;20019;-73
2021/12/29 09:42:29;;;;;;;1.20;0.35;;;9.70;99.90;;;;;;9165853;19;20014;-72
2021/12/29 09:45:34;;;;;;;2.20;0.45;;;9.70;99.90;;;;;;9173721;19;20024;-73
2021/12/29 09:48:40;;;;;;;0.98;0.38;;;9.70;99.90;;;;;;9176755;19;20677;-72
2021/12/29 09:51:48;;;;;;;0.82;0.50;;;9.70;99.90;;;;;;9174167;19;20048;-74
2021/12/29 09:54:53;;;;;;;0.75;0.57;;;9.70;99.90;;;;;;9168172;19;20569;-72
2021/12/29 09:58:00;;;;;;;0.52;0.40;;;9.70;99.90;;;;;;9165816;19;20018;-73
2021/12/29 10:01:07;;;;;;;0.63;0.40;;;9.70;99.90;;;;;;9165047;19;20014;-73
2021/12/29 10:04:14;;;;;;;1.30;0.50;;;9.70;99.90;;;;;;9169629;19;20099;-73
2021/12/29 10:07:23;;;;;;;0.85;0.43;;;9.80;99.90;;;;;;9165401;19;22462;-73
2021/12/29 10:10:28;;;;;;;0.60;0.38;;;9.70;99.90;;;;;;9171276;19;20026;-73
2021/12/29 10:13:37;;;;;;;0.85;0.60;;;9.80;99.90;;;;;;9172927;19;20022;-72
2021/12/29 10:16:44;;;;;;;0.75;0.40;;;9.80;99.90;;;;;;9173180;19;20018;-72
2021/12/29 10:19:49;;;;;;;0.30;0.28;;;9.80;99.90;;;;;;9171289;19;20018;-71
2021/12/29 10:23:01;;;;;;;0.55;0.35;;;9.80;99.90;;;;;;9170523;19;20479;-73
2021/12/29 10:26:14;;;;;;;0.28;0.25;;;9.80;99.90;;;;;;9166901;19;20824;-73
2021/12/29 10:29:22;;;;;;;1.08;0.45;;;9.80;99.90;;;;;;9170781;19;20025;-72
2021/12/29 10:32:28;;;;;;;0.30;0.20;;;9.90;99.90;;;;;;9167454;19;20794;-73
2021/12/29 10:35:34;;;;;;;0.45;0.30;;;9.90;99.90;;;;;;9174694;19;20387;-73
2021/12/29 10:38:43;;;;;;;0.50;0.30;;;9.90;99.90;;;;;;9174051;19;20368;-73
2021/12/29 10:41:52;;;;;;;0.95;0.30;;;9.90;99.90;;;;;;9175769;19;20018;-73
2021/12/29 10:45:00;;;;;;;0.80;0.40;;;9.90;99.90;;;;;;9175444;19;20017;-73
2021/12/29 10:48:21;;;;;;;0.50;0.30;;;9.90;99.90;;;;;;9174133;19;20040;-73
2021/12/29 10:51:32;;;;;;;0.30;0.30;;;9.90;99.90;;;;;;9170980;19;20309;-72
2021/12/29 10:54:40;;;;;;;0.80;0.40;;;9.90;99.90;;;;;;9167882;19;20014;-74
2021/12/29 10:57:45;;;;;;;0.43;0.40;;;10.00;99.90;;;;;;9173271;19;20014;-72
2021/12/29 11:01:13;;;;;;;0.35;0.35;;;10.00;99.90;;;;;;9175973;19;20019;-72
2021/12/29 11:04:20;;;;;;;0.55;0.22;;;10.00;99.90;;;;;;9176423;19;20015;-73
2021/12/29 11:07:28;;;;;;;0.30;0.30;;;10.00;99.90;;;;;;9179811;19;20038;-73
2021/12/29 11:10:36;;;;;;;0.40;0.20;;;10.00;99.90;;;;;;9174248;19;20573;-73
2021/12/29 11:13:41;;;;;;;1.35;0.63;;;10.00;99.90;;;;;;9169775;19;20003;-74
2021/12/29 11:16:48;;;;;;;0.73;0.40;;;10.00;99.90;;;;;;9172452;19;20019;-73
2021/12/29 11:19:56;;;;;;;1.00;0.40;;;10.00;99.90;;;;;;9171359;19;20131;-73
2021/12/29 11:23:10;;;;;;;0.52;0.30;;;10.00;99.90;;;;;;9175563;19;20024;-73
2021/12/29 11:26:18;;;;;;;0.40;0.30;;;10.10;99.90;;;;;;9174348;19;20015;-72
2021/12/29 11:29:24;;;;;;;1.27;0.40;;;10.10;99.90;;;;;;9175475;19;20042;-73
2021/12/29 11:32:32;;;;;;;0.63;0.30;;;10.10;99.90;;;;;;9169774;19;20041;-73
2021/12/29 11:35:41;;;;;;;0.43;0.22;;;10.10;99.90;;;;;;9169936;19;20018;-73
2021/12/29 11:38:46;;;;;;;0.75;0.50;;;10.10;99.90;;;;;;9172003;19;20021;-73
2021/12/29 11:41:54;;;;;;;0.57;0.25;;;10.10;99.90;;;;;;9177704;19;20007;-73
2021/12/29 11:44:59;;;;;;;0.68;0.20;;;10.10;99.90;;;;;;9173783;19;20022;-71
2021/12/29 11:48:05;;;;;;;0.52;0.30;;;10.10;99.90;;;;;;9177107;19;20054;-73
2021/12/29 11:51:12;;;;;;;0.30;0.30;;;10.10;99.90;;;;;;9179574;19;20023;-72
2021/12/29 11:54:23;;;;;;;0.85;0.35;;;10.10;99.90;;;;;;9165916;19;20466;-73
2021/12/29 11:57:34;;;;;;;0.57;0.38;;;10.20;99.90;;;;;;9175293;19;20029;-73
2021/12/29 12:00:39;;;;;;;0.63;0.47;;;10.20;99.90;;;;;;9173821;19;20028;-74
2021/12/29 12:03:51;;;;;;;1.05;0.50;;;10.20;99.90;;;;;;9174948;19;20371;-73
2021/12/29 12:07:07;;;;;;;0.85;0.40;;;10.20;99.90;;;;;;9173887;19;20513;-73
2021/12/29 12:10:26;;;;;;;0.77;0.43;;;10.20;99.90;;;;;;9175524;19;20062;-73
2021/12/29 12:13:35;;;;;;;0.40;0.38;;;10.20;99.90;;;;;;9176229;19;20022;-72
2021/12/29 12:16:50;;;;;;;1.13;0.50;;;10.20;99.90;;;;;;9177050;19;20022;-72
2021/12/29 12:20:01;;;;;;;0.65;0.20;;;10.20;99.90;;;;;;9176275;19;20022;-73
2021/12/29 12:23:07;;;;;;;0.28;0.28;;;10.20;99.90;;;;;;9175358;19;20363;-73
2021/12/29 12:26:13;;;;;;;0.17;0.10;;;10.20;99.90;;;;;;9176661;19;20482;-73
2021/12/29 12:29:21;;;;;;;0.30;0.30;;;10.20;99.90;;;;;;9174996;19;20014;-72
2021/12/29 12:32:27;;;;;;;0.68;0.32;;;10.20;99.90;;;;;;9174145;19;20367;-72
2021/12/29 12:35:37;;;;;;;1.10;0.47;;;10.20;99.90;;;;;;9175758;19;20424;-72
2021/12/29 12:38:43;;;;;;;1.65;0.63;;;10.20;99.90;;;;;;9177399;19;20064;-73
2021/12/29 12:41:53;;;;;;;0.45;0.30;;;10.20;99.90;;;;;;9177001;19;20017;-72
2021/12/29 12:45:01;;;;;;;0.80;0.30;;;10.20;99.90;;;;;;9174591;19;20467;-73
2021/12/29 12:48:08;;;;;;;0.95;0.30;;;10.20;99.90;;;;;;9174007;19;20543;-73
2021/12/29 12:51:17;;;;;;;0.55;0.40;;;10.20;99.90;;;;;;9173953;19;20021;-73
2021/12/29 12:54:25;;;;;;;0.88;0.35;;;10.20;99.90;;;;;;9166695;19;20014;-73
2021/12/29 12:57:33;;;;;;;0.30;0.30;;;10.20;99.90;;;;;;9171321;19;20570;-73
2021/12/29 13:00:46;;;;;;;1.40;0.50;;;10.30;99.90;;;;;;9172554;19;20022;-73
2021/12/29 13:03:51;;;;;;;0.63;0.47;;;10.20;99.90;;;;;;9171768;19;20078;-73
2021/12/29 13:06:59;;;;;;;0.40;0.30;;;10.20;99.90;;;;;;9171036;19;20031;-73
2021/12/29 13:10:05;;;;;;;0.20;0.20;;;10.20;99.90;;;;;;9173561;19;20011;-73
2021/12/29 13:13:20;;;;;;;0.43;0.30;;;10.20;99.90;;;;;;9173235;19;20012;-73
2021/12/29 13:16:29;;;;;;;0.50;0.30;;;10.20;99.90;;;;;;9174418;19;20374;-73
2021/12/29 13:19:35;;;;;;;0.77;0.38;;;10.20;99.90;;;;;;9180417;19;20014;-73
2021/12/29 13:22:41;;;;;;;0.30;0.30;;;10.20;99.90;;;;;;9182499;19;20022;-73
2021/12/29 13:25:48;;;;;;;0.45;0.35;;;10.20;99.90;;;;;;9185509;19;20014;-73
2021/12/29 13:28:53;;;;;;;0.35;0.30;;;10.20;99.90;;;;;;9184680;19;20083;-73
2021/12/29 13:32:01;;;;;;;1.10;0.50;;;10.20;99.90;;;;;;9184249;19;20018;-73
2021/12/29 13:35:08;;;;;;;0.65;0.43;;;10.20;99.90;;;;;;9177663;19;20022;-73
2021/12/29 13:38:17;;;;;;;0.38;0.38;;;10.20;99.90;;;;;;9182214;19;20022;-73
2021/12/29 13:41:24;;;;;;;0.82;0.38;;;10.20;99.90;;;;;;9180483;19;20041;-73
2021/12/29 13:44:29;;;;;;;0.50;0.30;;;10.20;99.90;;;;;;9182404;19;20052;-73
2021/12/29 13:47:37;;;;;;;0.47;0.30;;;10.20;99.90;;;;;;9180704;19;20021;-73
2021/12/29 13:50:42;;;;;;;0.68;0.47;;;10.10;99.90;;;;;;9184736;19;20018;-73
2021/12/29 13:53:50;;;;;;;0.47;0.45;;;10.10;99.90;;;;;;9180326;19;20015;-72
2021/12/29 13:56:55;;;;;;;0.45;0.40;;;10.10;99.90;;;;;;9181027;19;20010;-73
2021/12/29 14:00:00;;;;;;;1.10;0.50;;;10.10;99.90;;;;;;9181008;19;20044;-73
2021/12/29 14:03:10;;;;;;;0.28;0.28;;;10.10;99.90;;;;;;9179535;19;20023;-73
2021/12/29 14:06:15;;;;;;;0.75;0.50;;;10.10;99.90;;;;;;9180236;19;20043;-73
2021/12/29 14:09:21;;;;;;;0.25;0.25;;;10.10;99.90;;;;;;9182015;19;20014;-73
2021/12/29 14:12:33;;;;;;;0.45;0.40;;;10.10;99.90;;;;;;9182942;19;20018;-73
2021/12/29 14:15:38;;;;;;;1.17;0.30;;;10.10;99.90;;;;;;9182805;19;20022;-73
2021/12/29 14:18:56;;;;;;;0.50;0.35;;;10.00;99.90;;;;;;9178506;19;20036;-73
2021/12/29 14:22:01;;;;;;;1.33;0.50;;;10.00;99.90;;;;;;9178704;19;20018;-73
2021/12/29 14:25:10;;;;;;;0.40;0.25;;;10.10;99.90;;;;;;9176806;19;20025;-73
2021/12/29 14:28:18;;;;;;;0.40;0.30;;;10.00;99.90;;;;;;9180543;19;20029;-73
2021/12/29 14:31:25;;;;;;;0.57;0.32;;;10.00;99.90;;;;;;9177779;19;20368;-73
2021/12/29 14:34:45;;;;;;;0.50;0.40;;;10.00;99.90;;;;;;9182300;19;20487;-73
2021/12/29 14:37:50;;;;;;;0.47;0.40;;;10.00;99.90;;;;;;9181253;19;20023;-73
2021/12/29 14:40:55;;;;;;;0.20;0.20;;;10.00;99.90;;;;;;9181057;19;20018;-72
2021/12/29 14:44:03;;;;;;;0.30;0.30;;;10.00;99.90;;;;;;9179327;19;20352;-73
2021/12/29 14:47:11;;;;;;;0.55;0.40;;;10.00;99.90;;;;;;9178196;19;20018;-73
2021/12/29 14:50:23;;;;;;;0.45;0.35;;;10.00;99.90;;;;;;9179895;19;20018;-72
2021/12/29 14:53:32;;;;;;;0.40;0.30;;;9.90;99.90;;;;;;9176724;19;20019;-72
2021/12/29 14:56:37;;;;;;;0.68;0.20;;;9.90;99.90;;;;;;9180802;19;20019;-72
2021/12/29 14:59:43;;;;;;;0.35;0.30;;;9.90;99.90;;;;;;9180477;19;20089;-73
2021/12/29 15:02:49;;;;;;;0.20;0.20;;;9.90;99.90;;;;;;9182586;19;20015;-72
2021/12/29 15:05:57;;;;;;;0.63;0.20;;;9.90;99.90;;;;;;9177424;19;20018;-72
2021/12/29 15:09:05;;;;;;;1.02;0.38;;;9.90;99.90;;;;;;9177390;19;20028;-72
2021/12/29 15:12:19;;;;;;;0.55;0.30;;;9.80;99.90;;;;;;9177516;19;20030;-72
2021/12/29 15:15:28;;;;;;;0.60;0.30;;;9.80;99.90;;;;;;9176270;19;20352;-72
2021/12/29 15:18:40;;;;;;;0.80;0.30;;;9.80;99.90;;;;;;9181312;19;20010;-71
2021/12/29 15:21:47;;;;;;;0.32;0.28;;;9.80;99.90;;;;;;9180198;19;20140;-73
2021/12/29 15:24:53;;;;;;;0.20;0.17;;;9.80;99.90;;;;;;9179945;19;20014;-73
2021/12/29 15:28:00;;;;;;;0.90;0.30;;;9.80;99.90;;;;;;9177677;19;20025;-73
2021/12/29 15:31:08;;;;;;;0.40;0.20;;;9.70;99.90;;;;;;9176666;19;20015;-72
2021/12/29 15:34:15;;;;;;;0.30;0.30;;;9.70;99.90;;;;;;9178694;19;20033;-73
2021/12/29 15:37:22;;;;;;;0.43;0.30;;;9.70;99.90;;;;;;9176480;19;20356;-72
2021/12/29 15:40:28;;;;;;;0.32;0.32;;;9.70;99.90;;;;;;9174280;19;20391;-71
2021/12/29 15:43:33;;;;;;;0.50;0.35;;;9.70;99.90;;;;;;9177878;19;20019;-72
2021/12/29 15:46:38;;;;;;;0.40;0.40;;;9.70;99.90;;;;;;9178301;19;20109;-72
2021/12/29 15:49:43;;;;;;;0.35;0.30;;;9.70;99.90;;;;;;9179794;19;20024;-73
2021/12/29 15:52:53;;;;;;;0.68;0.40;;;9.70;99.90;;;;;;9177166;19;20074;-72
2021/12/29 15:55:58;;;;;;;0.40;0.30;;;9.70;99.90;;;;;;9176340;19;20026;-73
2021/12/29 15:59:03;;;;;;;0.60;0.30;;;9.70;99.90;;;;;;9176285;19;20030;-73
2021/12/29 16:02:09;;;;;;;0.55;0.30;;;9.70;99.90;;;;;;9178466;19;20017;-73
2021/12/29 16:05:14;;;;;;;0.60;0.30;;;9.70;99.90;;;;;;9178012;19;20137;-73
2021/12/29 16:08:21;;;;;;;0.28;0.20;;;9.70;99.90;;;;;;9175994;19;20048;-72
2021/12/29 16:11:26;;;;;;;0.35;0.30;;;9.70;99.90;;;;;;9179611;19;20356;-73
2021/12/29 16:14:31;;;;;;;0.40;0.40;;;9.70;99.90;;;;;;9174671;19;20018;-73
2021/12/29 16:17:37;;;;;;;1.00;0.40;;;9.70;99.90;;;;;;9177317;19;20022;-73
2021/12/29 16:20:42;;;;;;;0.45;0.35;;;9.70;99.90;;;;;;9175935;19;20551;-73
2021/12/29 16:23:50;;;;;;;1.02;0.40;;;9.70;99.90;;;;;;9177120;19;20455;-72
2021/12/29 16:26:55;;;;;;;0.45;0.45;;;9.70;99.90;;;;;;9179425;19;20017;-72
2021/12/29 16:30:01;;;;;;;0.70;0.40;;;9.70;99.90;;;;;;9179125;19;20015;-73